Terminal Aerodrome Forecast
Issued by NWS Sterling, VA

Current Version | Previous Version | Graphics & Text | Print | Product List | Glossary On
Versions: 1 2 3 4 5 6 7 8 9 10 11 12 13 14 15 16 17 18 19 20 21
000
FTUS41 KLWX 261731
TAFMRB
TAF
KMRB 261731Z 2618/2718 10006KT P6SM OVC010
     FM262200 11008KT 4SM BR OVC008
     FM270000 11007KT 1 1/2SM -DZRA BR OVC003
     FM270600 14005KT 1 1/2SM -RA BR OVC008
     FM271100 19004KT 5SM -RA BR OVC008
     FM271400 21005KT P6SM BKN015
     FM271600 22006KT P6SM BKN050=

USA.gov is the U.S. government's official web portal to all federal, state and local government web resources and services.